Time;durP1;ratioP1;P1;durP2;ratioP2;P2;SDS_P1;SDS_P2;PMS_P1;PMS_P2;Temp;Humidity;BMP_temperature;BMP_pressure;BME280_temperature;BME280_humidity;BME280_pressure;Samples;Min_cycle;Max_cycle;Signal;HPM_P1;HPM_P2
2021/12/13 00:00:13;;;;;;;18.62;12.88;;;;;;;;;;143738;607;46012;-79
2021/12/13 00:02:53;;;;;;;19.12;12.18;;;;;;;;;;143737;624;47025;-79
2021/12/13 00:05:39;;;;;;;14.05;8.20;;;;;;;;;;143737;613;46012;-78
2021/12/13 00:08:13;;;;;;;7.82;5.15;;;;;;;;;;143741;566;45583;-78
2021/12/13 00:10:55;;;;;;;7.32;5.18;;;;;;;;;;143738;574;46018;-78
2021/12/13 00:13:28;;;;;;;8.43;5.62;;;;;;;;;;143739;569;47022;-79
2021/12/13 00:15:59;;;;;;;7.60;5.07;;;;;;;;;;143742;714;46012;-78
2021/12/13 00:18:34;;;;;;;8.30;5.45;;;;;;;;;;143741;584;47020;-78
2021/12/13 00:21:12;;;;;;;6.68;4.35;;;;;;;;;;143737;600;46018;-78
2021/12/13 00:23:50;;;;;;;9.55;4.90;;;;;;;;;;143737;730;47022;-78
2021/12/13 00:26:25;;;;;;;8.00;4.25;;;;;;;;;;143741;633;46020;-78
2021/12/13 00:28:56;;;;;;;7.12;3.53;;;;;;;;;;143738;581;46020;-79
2021/12/13 00:31:55;;;;;;;10.98;5.43;;;;;;;;;;143742;566;46019;-78
2021/12/13 00:34:40;;;;;;;4.47;3.33;;;;;;;;;;143738;577;47025;-78
2021/12/13 00:37:26;;;;;;;6.40;4.07;;;;;;;;;;143741;602;46020;-78
2021/12/13 00:40:06;;;;;;;7.95;3.83;;;;;;;;;;143742;673;47021;-79
2021/12/13 00:42:40;;;;;;;7.20;4.68;;;;;;;;;;143744;578;46012;-78
2021/12/13 00:45:14;;;;;;;5.65;4.45;;;;;;;;;;143740;636;47022;-78
2021/12/13 00:47:43;;;;;;;9.95;5.72;;;;;;;;;;143740;580;46915;-79
2021/12/13 00:50:23;;;;;;;16.23;8.20;;;;;;;;;;143739;820;46020;-78
2021/12/13 00:52:53;;;;;;;10.48;7.18;;;;;;;;;;143740;601;46019;-78
2021/12/13 00:55:26;;;;;;;11.02;4.53;;;;;;;;;;143738;577;47021;-79
2021/12/13 00:58:15;;;;;;;5.60;3.70;;;;;;;;;;143737;597;46914;-78
2021/12/13 01:00:54;;;;;;;9.23;3.65;;;;;;;;;;143744;596;47020;-78
2021/12/13 01:03:35;;;;;;;7.18;3.97;;;;;;;;;;143738;691;47018;-78
2021/12/13 01:06:54;;;;;;;7.72;4.50;;;;;;;;;;143737;654;47022;-77
2021/12/13 01:10:13;;;;;;;6.03;4.30;;;;;;;;;;143741;842;46916;-78
2021/12/13 01:12:41;;;;;;;7.62;4.85;;;;;;;;;;143742;773;47020;-78
2021/12/13 01:15:16;;;;;;;6.00;3.92;;;;;;;;;;143738;628;46018;-77
2021/12/13 01:18:34;;;;;;;5.82;4.00;;;;;;;;;;143740;597;46021;-77
2021/12/13 01:21:30;;;;;;;5.68;3.75;;;;;;;;;;143741;579;46012;-77
2021/12/13 01:24:06;;;;;;;8.63;5.62;;;;;;;;;;143743;754;47021;-77
2021/12/13 01:26:46;;;;;;;13.18;7.85;;;;;;;;;;143739;629;46012;-76
2021/12/13 01:29:33;;;;;;;11.38;7.85;;;;;;;;;;143738;596;46016;-77
2021/12/13 01:32:04;;;;;;;9.15;5.07;;;;;;;;;;143736;810;47021;-77
2021/12/13 01:34:35;;;;;;;4.32;2.92;;;;;;;;;;143744;832;46018;-77
2021/12/13 01:37:13;;;;;;;4.53;2.62;;;;;;;;;;143740;592;46012;-77
2021/12/13 01:39:48;;;;;;;5.10;2.65;;;;;;;;;;143736;635;48021;-77
2021/12/13 01:42:22;;;;;;;3.95;3.08;;;;;;;;;;143736;641;46914;-77
2021/12/13 01:44:53;;;;;;;5.37;3.22;;;;;;;;;;143739;589;47020;-78
2021/12/13 01:47:25;;;;;;;5.62;2.85;;;;;;;;;;143740;743;47021;-77
2021/12/13 01:49:58;;;;;;;5.65;3.10;;;;;;;;;;143738;646;47020;-78
2021/12/13 01:52:35;;;;;;;7.35;3.33;;;;;;;;;;143743;617;46012;-78
2021/12/13 01:55:15;;;;;;;6.57;3.47;;;;;;;;;;143738;651;47020;-78
2021/12/13 01:57:50;;;;;;;9.15;4.03;;;;;;;;;;143739;587;46012;-78
2021/12/13 02:03:20;;;;;;;4.95;3.08;;;;;;;;;;143743;569;46049;-78
2021/12/13 02:05:54;;;;;;;4.27;3.20;;;;;;;;;;143743;637;47020;-78
2021/12/13 02:08:24;;;;;;;5.05;3.20;;;;;;;;;;143739;585;46013;-78
2021/12/13 02:11:00;;;;;;;7.45;4.00;;;;;;;;;;143738;660;46020;-78
2021/12/13 02:13:38;;;;;;;9.23;3.08;;;;;;;;;;143737;565;46012;-78
2021/12/13 02:18:57;;;;;;;7.22;3.03;;;;;;;;;;143741;623;46020;-77
2021/12/13 02:21:35;;;;;;;5.78;3.42;;;;;;;;;;143738;680;47020;-77
2021/12/13 02:24:10;;;;;;;4.10;2.78;;;;;;;;;;143738;628;46013;-78
2021/12/13 02:26:40;;;;;;;5.00;3.30;;;;;;;;;;143741;577;46020;-78
2021/12/13 02:29:17;;;;;;;5.35;3.10;;;;;;;;;;143742;632;46012;-78
2021/12/13 02:31:44;;;;;;;4.68;2.22;;;;;;;;;;143742;592;46015;-78
2021/12/13 02:34:18;;;;;;;3.78;2.70;;;;;;;;;;143740;734;46020;-77
2021/12/13 02:36:50;;;;;;;4.95;2.97;;;;;;;;;;143739;634;47020;-77
2021/12/13 02:39:23;;;;;;;6.57;3.33;;;;;;;;;;143742;565;46021;-77
2021/12/13 02:41:51;;;;;;;3.85;1.50;;;;;;;;;;143738;686;47020;-78
2021/12/13 02:44:26;;;;;;;4.40;1.40;;;;;;;;;;143740;632;46012;-79
2021/12/13 02:46:58;;;;;;;3.97;1.10;;;;;;;;;;143739;770;47021;-79
2021/12/13 02:49:30;;;;;;;2.08;1.23;;;;;;;;;;143743;672;47018;-77
2021/12/13 02:52:01;;;;;;;3.30;2.20;;;;;;;;;;143742;565;47022;-78
2021/12/13 02:54:45;;;;;;;6.65;3.72;;;;;;;;;;143743;593;46012;-77
2021/12/13 02:57:24;;;;;;;38.43;19.00;;;;;;;;;;143744;591;47020;-78
2021/12/13 03:00:01;;;;;;;19.10;12.45;;;;;;;;;;143739;637;46019;-77
2021/12/13 03:02:34;;;;;;;10.40;5.25;;;;;;;;;;143738;595;47020;-78
2021/12/13 03:05:01;;;;;;;3.35;2.25;;;;;;;;;;143739;564;46020;-79
2021/12/13 03:07:34;;;;;;;2.40;1.80;;;;;;;;;;143742;564;47020;-78
2021/12/13 03:10:09;;;;;;;2.65;1.30;;;;;;;;;;143739;605;46021;-78
2021/12/13 03:12:37;;;;;;;4.47;1.92;;;;;;;;;;143740;631;47022;-78
2021/12/13 03:15:09;;;;;;;2.55;1.48;;;;;;;;;;143744;577;46021;-77
2021/12/13 03:17:47;;;;;;;3.53;1.95;;;;;;;;;;143742;612;47020;-78
2021/12/13 03:21:02;;;;;;;4.60;1.77;;;;;;;;;;143743;575;46012;-77
2021/12/13 03:24:13;;;;;;;2.25;1.40;;;;;;;;;;143744;573;47022;-77
2021/12/13 03:27:23;;;;;;;2.42;1.37;;;;;;;;;;143742;582;46012;-77
2021/12/13 03:30:06;;;;;;;3.40;1.90;;;;;;;;;;143738;633;45022;-77
2021/12/13 03:32:43;;;;;;;2.20;1.40;;;;;;;;;;143740;646;46012;-78
2021/12/13 03:35:24;;;;;;;2.37;1.25;;;;;;;;;;143741;585;47020;-77
2021/12/13 03:38:01;;;;;;;2.33;1.45;;;;;;;;;;143741;600;47013;-78
2021/12/13 03:40:30;;;;;;;1.80;1.40;;;;;;;;;;143742;634;47020;-77
2021/12/13 03:43:04;;;;;;;2.00;1.17;;;;;;;;;;143745;616;46020;-78
2021/12/13 03:45:41;;;;;;;;;;;;;;;;;;143746;981;47022;-78
2021/12/13 03:48:13;;;;;;;3.03;1.70;;;;;;;;;;143748;587;46010;-78
2021/12/13 03:50:43;;;;;;;1.62;1.10;;;;;;;;;;143741;577;47020;-78
2021/12/13 03:53:17;;;;;;;2.00;1.08;;;;;;;;;;143745;624;46020;-78
2021/12/13 03:55:46;;;;;;;2.30;1.17;;;;;;;;;;143737;564;47023;-77
2021/12/13 03:58:17;;;;;;;2.70;1.25;;;;;;;;;;143743;613;46010;-77
2021/12/13 04:01:06;;;;;;;2.50;1.23;;;;;;;;;;143742;631;46021;-77
2021/12/13 04:03:34;;;;;;;3.10;1.55;;;;;;;;;;143744;615;46012;-78
2021/12/13 04:06:03;;;;;;;2.08;1.40;;;;;;;;;;143744;566;46047;-78
2021/12/13 04:08:32;;;;;;;3.05;1.40;;;;;;;;;;143739;588;46010;-76
2021/12/13 04:11:07;;;;;;;2.10;1.70;;;;;;;;;;143739;579;47020;-78
2021/12/13 04:13:42;;;;;;;2.83;1.52;;;;;;;;;;143745;569;46010;-77
2021/12/13 04:16:34;;;;;;;2.42;1.70;;;;;;;;;;143740;645;47020;-77
2021/12/13 04:19:06;;;;;;;3.85;1.85;;;;;;;;;;143741;587;46913;-77
2021/12/13 04:21:57;;;;;;;2.70;1.53;;;;;;;;;;143737;584;46021;-77
2021/12/13 04:24:44;;;;;;;2.47;1.20;;;;;;;;;;143745;594;46010;-77
2021/12/13 04:27:36;;;;;;;2.58;1.05;;;;;;;;;;143740;606;46022;-78
2021/12/13 04:30:20;;;;;;;2.58;1.12;;;;;;;;;;143736;592;46012;-78
2021/12/13 04:32:50;;;;;;;0.50;0.30;;;;;;;;;;143739;694;47020;-78
2021/12/13 04:35:17;;;;;;;1.37;0.80;;;;;;;;;;143739;566;46018;-78
2021/12/13 04:37:48;;;;;;;0.75;0.50;;;;;;;;;;143739;643;47022;-79
2021/12/13 04:40:22;;;;;;;0.85;0.40;;;;;;;;;;143742;570;46010;-78
2021/12/13 04:43:14;;;;;;;1.02;0.50;;;;;;;;;;143739;571;47020;-79
2021/12/13 04:45:47;;;;;;;1.58;0.70;;;;;;;;;;143747;599;46021;-78
2021/12/13 04:48:17;;;;;;;0.70;0.57;;;;;;;;;;143740;602;46020;-78
2021/12/13 04:50:55;;;;;;;4.05;0.60;;;;;;;;;;143741;564;46010;-78
2021/12/13 04:53:38;;;;;;;2.22;0.70;;;;;;;;;;143741;564;47021;-78
2021/12/13 04:56:09;;;;;;;2.92;0.75;;;;;;;;;;143744;601;46020;-79
2021/12/13 04:58:37;;;;;;;1.45;0.43;;;;;;;;;;143742;587;46022;-79
2021/12/13 05:01:07;;;;;;;1.33;0.85;;;;;;;;;;143744;570;46021;-78
2021/12/13 05:03:39;;;;;;;2.00;0.70;;;;;;;;;;143743;580;47020;-78
2021/12/13 05:06:19;;;;;;;1.27;0.70;;;;;;;;;;143750;569;46019;-78
2021/12/13 05:09:02;;;;;;;1.50;0.80;;;;;;;;;;143740;575;47023;-78
2021/12/13 05:11:48;;;;;;;1.83;1.17;;;;;;;;;;143742;636;46010;-78
2021/12/13 05:14:53;;;;;;;1.75;1.30;;;;;;;;;;143741;585;47021;-78
2021/12/13 05:17:37;;;;;;;3.35;0.98;;;;;;;;;;143746;566;46018;-77
2021/12/13 05:20:22;;;;;;;2.05;0.80;;;;;;;;;;143740;616;47022;-77
2021/12/13 05:22:57;;;;;;;1.30;1.05;;;;;;;;;;143740;565;45915;-78
2021/12/13 05:25:46;;;;;;;1.15;0.60;;;;;;;;;;143744;620;47020;-78
2021/12/13 05:28:19;;;;;;;2.37;1.12;;;;;;;;;;143745;565;46021;-78
2021/12/13 05:31:09;;;;;;;1.65;1.12;;;;;;;;;;143741;634;47023;-78
2021/12/13 05:33:46;;;;;;;1.95;1.10;;;;;;;;;;143744;591;46020;-77
2021/12/13 05:36:24;;;;;;;2.83;1.48;;;;;;;;;;143742;607;47020;-79
2021/12/13 05:39:10;;;;;;;2.03;1.12;;;;;;;;;;143745;590;46010;-79
2021/12/13 05:41:38;;;;;;;1.55;0.80;;;;;;;;;;143740;578;47020;-77
2021/12/13 05:44:11;;;;;;;1.67;0.75;;;;;;;;;;143740;713;46011;-77
2021/12/13 05:46:55;;;;;;;4.70;1.90;;;;;;;;;;143744;613;46020;-77
2021/12/13 05:49:34;;;;;;;6.00;2.53;;;;;;;;;;143746;663;46010;-77
2021/12/13 05:52:12;;;;;;;4.65;1.45;;;;;;;;;;143742;564;47022;-77
2021/12/13 05:54:47;;;;;;;3.97;1.70;;;;;;;;;;143741;611;46020;-76
2021/12/13 05:57:23;;;;;;;3.55;2.08;;;;;;;;;;143739;585;46018;-78
2021/12/13 06:00:40;;;;;;;3.65;2.05;;;;;;;;;;143747;585;47018;-77
2021/12/13 06:03:17;;;;;;;7.47;3.85;;;;;;;;;;143741;579;46020;-77
2021/12/13 06:05:52;;;;;;;6.72;3.08;;;;;;;;;;143743;647;46010;-77
2021/12/13 06:08:25;;;;;;;4.50;2.83;;;;;;;;;;143740;599;46021;-77
2021/12/13 06:11:03;;;;;;;3.40;2.37;;;;;;;;;;143742;575;46018;-77
2021/12/13 06:14:00;;;;;;;8.30;3.78;;;;;;;;;;143739;580;47022;-77
2021/12/13 06:17:10;;;;;;;6.78;2.65;;;;;;;;;;143743;592;47020;-78
2021/12/13 06:19:48;;;;;;;6.60;3.50;;;;;;;;;;143742;641;47020;-77
2021/12/13 06:22:22;;;;;;;11.15;3.42;;;;;;;;;;143741;615;46011;-78
2021/12/13 06:25:14;;;;;;;11.30;3.58;;;;;;;;;;143741;604;47022;-80
2021/12/13 06:27:55;;;;;;;8.77;3.70;;;;;;;;;;143738;573;46010;-79
2021/12/13 06:30:53;;;;;;;6.57;3.37;;;;;;;;;;143741;612;47021;-79
2021/12/13 06:33:29;;;;;;;16.90;4.40;;;;;;;;;;143739;573;46012;-79
2021/12/13 06:36:02;;;;;;;7.45;4.20;;;;;;;;;;143738;616;47021;-79
2021/12/13 06:38:33;;;;;;;;;;;;;;;;;;143745;973;46916;-79
2021/12/13 06:41:30;;;;;;;6.97;3.40;;;;;;;;;;143752;579;46020;-79
2021/12/13 06:44:11;;;;;;;6.90;3.47;;;;;;;;;;143742;605;46020;-79
2021/12/13 06:46:57;;;;;;;2.92;2.30;;;;;;;;;;143741;570;46023;-78
2021/12/13 06:49:58;;;;;;;4.17;3.47;;;;;;;;;;143742;602;47020;-79
2021/12/13 06:52:39;;;;;;;3.70;2.05;;;;;;;;;;143743;698;46018;-79
2021/12/13 06:55:12;;;;;;;1.70;1.02;;;;;;;;;;143751;606;46020;-79
2021/12/13 06:57:48;;;;;;;1.70;1.17;;;;;;;;;;143746;564;47021;-79
2021/12/13 07:00:52;;;;;;;3.28;1.30;;;;;;;;;;143748;570;45917;-80
2021/12/13 07:03:40;;;;;;;5.95;1.12;;;;;;;;;;143746;571;47020;-79
2021/12/13 07:06:27;;;;;;;3.10;1.75;;;;;;;;;;143752;593;46018;-80
2021/12/13 07:09:29;;;;;;;5.60;1.55;;;;;;;;;;143748;575;46024;-80
2021/12/13 07:12:00;;;;;;;3.70;1.48;;;;;;;;;;143748;568;45916;-80
2021/12/13 07:14:38;;;;;;;2.53;1.58;;;;;;;;;;143742;572;47021;-77
2021/12/13 07:17:17;;;;;;;11.70;3.33;;;;;;;;;;143751;732;46018;-77
2021/12/13 07:19:48;;;;;;;3.80;1.30;;;;;;;;;;143748;597;47022;-77
2021/12/13 07:22:26;;;;;;;6.30;2.12;;;;;;;;;;143747;586;46020;-77
2021/12/13 07:25:16;;;;;;;7.28;2.28;;;;;;;;;;143742;674;47020;-76
2021/12/13 07:27:49;;;;;;;3.47;1.85;;;;;;;;;;143752;612;45050;-77
2021/12/13 07:30:25;;;;;;;2.65;1.87;;;;;;;;;;143741;589;47020;-77
2021/12/13 07:33:04;;;;;;;4.32;1.75;;;;;;;;;;143747;569;46020;-77
2021/12/13 07:35:53;;;;;;;8.25;2.72;;;;;;;;;;143748;569;47020;-77
2021/12/13 07:38:33;;;;;;;6.55;2.12;;;;;;;;;;143751;593;45045;-77
2021/12/13 07:41:04;;;;;;;3.42;1.87;;;;;;;;;;143751;601;46022;-78
2021/12/13 07:43:39;;;;;;;4.72;1.58;;;;;;;;;;143748;644;45916;-78
2021/12/13 07:46:39;;;;;;;3.90;1.85;;;;;;;;;;143749;600;47020;-77
2021/12/13 07:49:10;;;;;;;11.85;2.53;;;;;;;;;;143750;582;45020;-77
2021/12/13 07:51:40;;;;;;;6.80;3.22;;;;;;;;;;143748;585;47021;-78
2021/12/13 07:54:14;;;;;;;3.37;2.05;;;;;;;;;;143744;591;46020;-77
2021/12/13 07:57:05;;;;;;;3.83;2.33;;;;;;;;;;143742;568;46020;-77
2021/12/13 07:59:40;;;;;;;6.70;2.78;;;;;;;;;;143746;564;46018;-77
2021/12/13 08:02:33;;;;;;;7.85;2.40;;;;;;;;;;143744;606;46022;-77
2021/12/13 08:05:14;;;;;;;16.17;4.12;;;;;;;;;;143745;593;46020;-77
2021/12/13 08:08:02;;;;;;;4.03;3.00;;;;;;;;;;143742;612;46021;-78
2021/12/13 08:10:41;;;;;;;5.87;3.75;;;;;;;;;;143744;571;46020;-77
2021/12/13 08:13:17;;;;;;;8.18;3.55;;;;;;;;;;143744;574;47022;-77
2021/12/13 08:15:58;;;;;;;8.77;2.87;;;;;;;;;;143745;695;46012;-79
2021/12/13 08:18:42;;;;;;;10.32;3.00;;;;;;;;;;143744;747;47020;-76
2021/12/13 08:21:22;;;;;;;11.93;4.10;;;;;;;;;;143741;603;46018;-78
2021/12/13 08:24:01;;;;;;;6.40;4.00;;;;;;;;;;143738;577;48013;-77
2021/12/13 08:26:40;;;;;;;11.38;5.50;;;;;;;;;;143740;679;46020;-78
2021/12/13 08:29:23;;;;;;;14.38;3.87;;;;;;;;;;143742;587;47021;-76
2021/12/13 08:31:56;;;;;;;7.20;3.53;;;;;;;;;;143738;577;46018;-78
2021/12/13 08:34:33;;;;;;;12.50;5.07;;;;;;;;;;143740;589;47022;-77
2021/12/13 08:37:00;;;;;;;7.53;3.33;;;;;;;;;;143739;564;46916;-77
2021/12/13 08:39:34;;;;;;;7.57;4.28;;;;;;;;;;143748;589;46020;-77
2021/12/13 08:42:21;;;;;;;7.10;3.47;;;;;;;;;;143749;599;46012;-76
2021/12/13 08:45:28;;;;;;;4.20;2.33;;;;;;;;;;143745;574;47023;-75
2021/12/13 08:48:01;;;;;;;4.65;2.83;;;;;;;;;;143742;581;46012;-75
2021/12/13 08:50:40;;;;;;;6.57;2.05;;;;;;;;;;143739;572;47021;-76
2021/12/13 08:53:17;;;;;;;5.07;1.48;;;;;;;;;;143741;593;46020;-76
2021/12/13 08:55:52;;;;;;;6.90;2.42;;;;;;;;;;143745;595;46022;-76
2021/12/13 08:58:21;;;;;;;4.97;2.22;;;;;;;;;;143736;604;46013;-76
2021/12/13 09:01:13;;;;;;;5.10;2.90;;;;;;;;;;143745;581;46020;-76
2021/12/13 09:03:52;;;;;;;4.78;3.85;;;;;;;;;;143745;650;46012;-76
2021/12/13 09:06:27;;;;;;;8.80;3.00;;;;;;;;;;143739;577;47020;-77
2021/12/13 09:09:06;;;;;;;6.15;2.75;;;;;;;;;;143743;572;46012;-76
2021/12/13 09:11:43;;;;;;;9.43;3.08;;;;;;;;;;143745;696;46020;-77
2021/12/13 09:14:38;;;;;;;3.72;2.75;;;;;;;;;;143743;613;46013;-75
2021/12/13 09:17:31;;;;;;;3.40;1.95;;;;;;;;;;143740;593;47022;-76
2021/12/13 09:20:44;;;;;;;4.10;2.40;;;;;;;;;;143743;587;46012;-75
2021/12/13 09:23:29;;;;;;;3.75;2.28;;;;;;;;;;143744;585;47020;-76
2021/12/13 09:26:16;;;;;;;5.60;4.03;;;;;;;;;;143746;577;46012;-76
2021/12/13 09:28:50;;;;;;;8.82;4.22;;;;;;;;;;143742;710;47021;-77
2021/12/13 09:31:22;;;;;;;7.35;4.55;;;;;;;;;;143742;683;46012;-76
2021/12/13 09:33:59;;;;;;;4.97;2.65;;;;;;;;;;143743;569;46020;-77
2021/12/13 09:36:31;;;;;;;5.55;2.78;;;;;;;;;;143739;566;46012;-76
2021/12/13 09:39:04;;;;;;;6.45;2.35;;;;;;;;;;143741;604;46022;-78
2021/12/13 09:41:53;;;;;;;7.68;2.03;;;;;;;;;;143740;651;46012;-77
2021/12/13 09:44:48;;;;;;;2.80;2.25;;;;;;;;;;143739;575;46020;-76
2021/12/13 09:47:23;;;;;;;2.28;1.55;;;;;;;;;;143742;569;47020;-77
2021/12/13 09:50:18;;;;;;;4.00;1.85;;;;;;;;;;143745;611;47022;-76
2021/12/13 09:53:01;;;;;;;2.75;1.58;;;;;;;;;;143742;572;47012;-76
2021/12/13 09:55:38;;;;;;;6.40;2.20;;;;;;;;;;143745;563;47020;-76
2021/12/13 09:58:14;;;;;;;7.15;1.83;;;;;;;;;;143740;569;46012;-77
2021/12/13 10:00:57;;;;;;;6.00;1.60;;;;;;;;;;143742;723;47022;-76
2021/12/13 10:03:31;;;;;;;;;;;;;;;;;;143750;982;45916;-75
2021/12/13 10:06:02;;;;;;;3.05;1.70;;;;;;;;;;143750;564;47021;-76
2021/12/13 10:08:55;;;;;;;5.53;1.90;;;;;;;;;;143742;564;46020;-77
2021/12/13 10:11:30;;;;;;;6.55;2.50;;;;;;;;;;143740;570;47024;-76
2021/12/13 10:13:58;;;;;;;3.58;2.37;;;;;;;;;;143741;566;46010;-76
2021/12/13 10:16:31;;;;;;;4.37;2.97;;;;;;;;;;143743;601;46022;-76
2021/12/13 10:18:59;;;;;;;4.10;2.47;;;;;;;;;;143741;663;46017;-76
2021/12/13 10:21:33;;;;;;;5.28;2.53;;;;;;;;;;143744;591;46023;-76
2021/12/13 10:24:09;;;;;;;3.95;2.87;;;;;;;;;;143744;612;46010;-78
2021/12/13 10:26:40;;;;;;;7.87;2.55;;;;;;;;;;143742;602;47020;-76
2021/12/13 10:29:10;;;;;;;5.68;2.67;;;;;;;;;;143745;574;46010;-77
2021/12/13 10:31:52;;;;;;;4.28;3.15;;;;;;;;;;143745;610;46022;-76
2021/12/13 10:34:24;;;;;;;6.40;3.97;;;;;;;;;;143742;578;46011;-77
2021/12/13 10:37:00;;;;;;;10.35;5.18;;;;;;;;;;143742;580;47021;-77
2021/12/13 10:39:37;;;;;;;14.25;8.02;;;;;;;;;;143744;564;46010;-77
2021/12/13 10:42:14;;;;;;;11.02;5.53;;;;;;;;;;143746;597;45022;-77
2021/12/13 10:44:48;;;;;;;9.75;4.65;;;;;;;;;;143739;564;46020;-76
2021/12/13 10:47:34;;;;;;;12.40;4.45;;;;;;;;;;143740;584;47020;-77
2021/12/13 10:50:19;;;;;;;5.87;3.30;;;;;;;;;;143740;582;46011;-76
2021/12/13 10:53:02;;;;;;;6.78;3.72;;;;;;;;;;143742;605;47022;-76
2021/12/13 10:55:51;;;;;;;11.60;3.50;;;;;;;;;;143744;571;46010;-77
2021/12/13 10:58:27;;;;;;;12.45;6.78;;;;;;;;;;143742;581;46021;-77
2021/12/13 11:01:06;;;;;;;7.45;4.60;;;;;;;;;;143740;577;46010;-77
2021/12/13 11:03:34;;;;;;;8.85;3.80;;;;;;;;;;143741;643;46020;-77
2021/12/13 11:06:02;;;;;;;5.93;3.50;;;;;;;;;;143743;581;46010;-77
2021/12/13 11:08:30;;;;;;;6.07;3.00;;;;;;;;;;143742;574;47020;-78
2021/12/13 11:11:04;;;;;;;5.90;3.08;;;;;;;;;;143746;564;47019;-77
2021/12/13 11:13:35;;;;;;;4.00;2.33;;;;;;;;;;143742;575;47021;-77
2021/12/13 11:16:15;;;;;;;6.80;2.85;;;;;;;;;;143739;593;46010;-79
2021/12/13 11:18:46;;;;;;;19.62;2.47;;;;;;;;;;143739;614;47020;-77
2021/12/13 11:21:31;;;;;;;7.28;3.72;;;;;;;;;;143738;575;46010;-77
2021/12/13 11:23:59;;;;;;;6.43;3.65;;;;;;;;;;143740;564;47022;-77
2021/12/13 11:26:31;;;;;;;6.20;3.25;;;;;;;;;;143741;613;46010;-77
2021/12/13 11:28:59;;;;;;;9.30;3.87;;;;;;;;;;143739;579;47021;-76
2021/12/13 11:32:08;;;;;;;5.70;3.72;;;;;;;;;;143739;572;46018;-76
2021/12/13 11:35:28;;;;;;;4.70;2.95;;;;;;;;;;143745;564;46022;-77
2021/12/13 11:38:49;;;;;;;5.03;3.03;;;;;;;;;;143741;635;46010;-77
2021/12/13 11:41:57;;;;;;;8.77;3.62;;;;;;;;;;143743;600;47020;-77
2021/12/13 11:45:07;;;;;;;13.43;6.20;;;;;;;;;;143739;620;46020;-77
2021/12/13 11:48:10;;;;;;;7.57;4.28;;;;;;;;;;143737;579;47020;-78
2021/12/13 11:51:17;;;;;;;5.40;3.37;;;;;;;;;;143740;597;47021;-76
2021/12/13 11:54:22;;;;;;;8.40;3.53;;;;;;;;;;143739;606;46020;-77
2021/12/13 11:57:37;;;;;;;12.30;4.22;;;;;;;;;;143740;606;46019;-78
2021/12/13 12:00:51;;;;;;;6.93;3.58;;;;;;;;;;143738;645;47022;-76
2021/12/13 12:03:54;;;;;;;5.00;3.37;;;;;;;;;;143742;579;46010;-77
2021/12/13 12:07:07;;;;;;;7.65;4.50;;;;;;;;;;143743;589;46012;-76
2021/12/13 12:10:15;;;;;;;5.78;3.37;;;;;;;;;;143743;579;46010;-77
2021/12/13 12:13:18;;;;;;;8.98;2.40;;;;;;;;;;143737;620;47023;-76
2021/12/13 12:15:46;;;;;;;14.68;10.57;;;;;;;;;;143737;598;46010;-77
2021/12/13 12:18:18;;;;;;;10.85;3.37;;;;;;;;;;143739;639;46012;-76
2021/12/13 12:21:23;;;;;;;9.20;6.90;;;;;;;;;;143738;632;46018;-78
2021/12/13 12:23:50;;;;;;;9.05;4.47;;;;;;;;;;143738;563;47022;-78
2021/12/13 12:26:18;;;;;;;4.85;3.50;;;;;;;;;;143741;611;46916;-76
2021/12/13 12:28:47;;;;;;;5.87;3.40;;;;;;;;;;143739;620;47020;-78
2021/12/13 12:31:14;;;;;;;7.10;4.70;;;;;;;;;;143738;577;47018;-76
2021/12/13 12:33:41;;;;;;;5.93;4.00;;;;;;;;;;143742;598;46022;-77
2021/12/13 12:36:45;;;;;;;7.50;4.18;;;;;;;;;;143738;588;46020;-76
2021/12/13 12:39:55;;;;;;;4.47;3.30;;;;;;;;;;143740;569;46020;-76
2021/12/13 12:42:37;;;;;;;6.82;4.35;;;;;;;;;;143740;589;46018;-77
2021/12/13 12:45:57;;;;;;;6.47;4.15;;;;;;;;;;143739;578;47022;-78
2021/12/13 12:48:38;;;;;;;4.65;2.97;;;;;;;;;;143736;593;46012;-77
2021/12/13 12:51:18;;;;;;;7.62;4.75;;;;;;;;;;143737;624;47020;-76
2021/12/13 12:54:06;;;;;;;9.57;7.30;;;;;;;;;;143747;601;46010;-77
2021/12/13 12:57:11;;;;;;;9.18;5.60;;;;;;;;;;143747;614;46021;-76
2021/12/13 12:59:42;;;;;;;7.80;5.12;;;;;;;;;;143747;566;46020;-75
2021/12/13 13:02:18;;;;;;;5.72;4.35;;;;;;;;;;143746;612;47020;-76
2021/12/13 13:04:57;;;;;;;5.78;4.65;;;;;;;;;;143749;575;45021;-75
2021/12/13 13:07:33;;;;;;;6.18;5.28;;;;;;;;;;143746;585;47022;-75
2021/12/13 13:10:24;;;;;;;4.82;4.00;;;;;;;;;;143748;571;45916;-76
2021/12/13 13:13:01;;;;;;;8.95;5.78;;;;;;;;;;143751;695;45021;-76
2021/12/13 13:15:36;;;;;;;7.68;6.20;;;;;;;;;;143752;638;45020;-76
2021/12/13 13:18:19;;;;;;;8.68;6.32;;;;;;;;;;143740;566;45910;-78
2021/12/13 13:20:58;;;;;;;8.52;6.25;;;;;;;;;;143746;625;46020;-77
2021/12/13 13:23:47;;;;;;;7.18;5.15;;;;;;;;;;143747;638;46020;-77
2021/12/13 13:26:15;;;;;;;4.60;3.47;;;;;;;;;;143747;582;46018;-76
2021/12/13 13:28:53;;;;;;;5.15;4.30;;;;;;;;;;143739;583;47020;-77
2021/12/13 13:31:33;;;;;;;10.43;5.72;;;;;;;;;;143748;581;45916;-76
2021/12/13 13:34:05;;;;;;;10.13;5.30;;;;;;;;;;143746;590;45021;-77
2021/12/13 13:36:49;;;;;;;6.73;5.67;;;;;;;;;;143750;579;45020;-77
2021/12/13 13:39:42;;;;;;;9.43;7.93;;;;;;;;;;143746;582;47022;-76
2021/12/13 13:42:21;;;;;;;8.30;6.47;;;;;;;;;;143746;612;46916;-78
2021/12/13 13:44:55;;;;;;;10.57;8.48;;;;;;;;;;143745;565;47020;-77
2021/12/13 13:47:37;;;;;;;16.48;7.97;;;;;;;;;;143750;577;46019;-76
2021/12/13 13:50:40;;;;;;;10.73;8.02;;;;;;;;;;143744;570;47023;-77
2021/12/13 13:53:34;;;;;;;8.27;7.32;;;;;;;;;;143742;755;45915;-75
2021/12/13 13:56:13;;;;;;;6.53;5.47;;;;;;;;;;143741;574;47021;-76
2021/12/13 13:59:07;;;;;;;7.50;6.00;;;;;;;;;;143737;603;46018;-77
2021/12/13 14:02:15;;;;;;;8.50;4.43;;;;;;;;;;143740;579;47022;-75
2021/12/13 14:04:47;;;;;;;5.95;4.82;;;;;;;;;;143735;610;46013;-77
2021/12/13 14:07:25;;;;;;;7.35;5.28;;;;;;;;;;143739;587;46020;-77
2021/12/13 14:10:00;;;;;;;19.48;5.65;;;;;;;;;;143746;591;46010;-77
2021/12/13 14:12:42;;;;;;;8.13;4.72;;;;;;;;;;143737;570;47020;-77
2021/12/13 14:15:20;;;;;;;10.57;6.28;;;;;;;;;;143742;564;46010;-77
2021/12/13 14:17:54;;;;;;;7.85;4.35;;;;;;;;;;143736;585;46013;-76
2021/12/13 14:20:37;;;;;;;8.32;5.93;;;;;;;;;;143739;579;46030;-78
2021/12/13 14:23:42;;;;;;;7.53;5.80;;;;;;;;;;143738;629;47022;-77
2021/12/13 14:26:24;;;;;;;5.05;3.78;;;;;;;;;;143742;565;46010;-77
2021/12/13 14:29:01;;;;;;;10.27;7.93;;;;;;;;;;143741;624;47020;-77
2021/12/13 14:31:43;;;;;;;10.43;7.07;;;;;;;;;;143739;646;46010;-77
2021/12/13 14:34:20;;;;;;;7.12;5.82;;;;;;;;;;143736;579;47021;-77
2021/12/13 14:36:56;;;;;;;11.48;6.62;;;;;;;;;;143739;582;46010;-77
2021/12/13 14:39:42;;;;;;;9.00;5.65;;;;;;;;;;143739;657;47020;-76
2021/12/13 14:42:35;;;;;;;61.75;53.67;;;;;;;;;;143745;591;46018;-78
2021/12/13 14:45:10;;;;;;;57.40;52.28;;;;;;;;;;143737;597;47024;-77
2021/12/13 14:47:56;;;;;;;117.25;106.97;;;;;;;;;;143737;570;46011;-77
2021/12/13 14:50:29;;;;;;;14.98;13.38;;;;;;;;;;143739;621;47020;-77
2021/12/13 14:53:01;;;;;;;13.68;8.95;;;;;;;;;;143746;563;46020;-77
2021/12/13 14:55:37;;;;;;;8.48;6.65;;;;;;;;;;143744;607;47021;-78
2021/12/13 14:58:10;;;;;;;30.52;23.15;;;;;;;;;;143746;619;45914;-76
2021/12/13 15:00:55;;;;;;;70.65;53.10;;;;;;;;;;143747;646;46020;-76
2021/12/13 15:03:27;;;;;;;49.20;37.75;;;;;;;;;;143749;738;46013;-76
2021/12/13 15:06:07;;;;;;;18.47;14.63;;;;;;;;;;143746;647;46023;-75
2021/12/13 15:08:46;;;;;;;33.90;26.90;;;;;;;;;;143745;611;46024;-77
2021/12/13 15:11:36;;;;;;;32.85;24.35;;;;;;;;;;143743;615;47021;-77
2021/12/13 15:14:27;;;;;;;28.67;19.00;;;;;;;;;;143747;593;46018;-77
2021/12/13 15:17:00;;;;;;;61.03;38.83;;;;;;;;;;143746;623;47022;-78
2021/12/13 15:19:38;;;;;;;18.80;12.93;;;;;;;;;;143747;565;46020;-77
2021/12/13 15:22:19;;;;;;;34.97;23.83;;;;;;;;;;143745;589;47020;-78
2021/12/13 15:25:18;;;;;;;34.83;21.98;;;;;;;;;;143748;610;46021;-76
2021/12/13 15:27:49;;;;;;;34.38;23.90;;;;;;;;;;143746;570;46023;-77
2021/12/13 15:30:21;;;;;;;38.00;22.83;;;;;;;;;;143746;607;45913;-77
2021/12/13 15:33:05;;;;;;;43.72;27.67;;;;;;;;;;143747;587;46021;-76
2021/12/13 15:35:38;;;;;;;8.07;6.03;;;;;;;;;;143747;604;47020;-78
2021/12/13 15:38:18;;;;;;;16.92;10.82;;;;;;;;;;143746;587;46022;-78
2021/12/13 15:40:53;;;;;;;14.98;9.15;;;;;;;;;;143747;600;46914;-77
2021/12/13 15:43:45;;;;;;;14.13;10.57;;;;;;;;;;143746;598;47020;-79
2021/12/13 15:46:39;;;;;;;16.23;10.60;;;;;;;;;;143755;586;45020;-79
2021/12/13 15:49:34;;;;;;;10.73;7.85;;;;;;;;;;143750;587;45023;-77
2021/12/13 15:52:22;;;;;;;15.63;9.23;;;;;;;;;;143745;577;45915;-78
2021/12/13 15:55:07;;;;;;;19.15;9.48;;;;;;;;;;143757;565;45021;-76
2021/12/13 15:57:37;;;;;;;13.13;9.00;;;;;;;;;;143756;613;45022;-77
2021/12/13 16:00:12;;;;;;;7.90;5.07;;;;;;;;;;143754;574;46022;-77
2021/12/13 16:02:39;;;;;;;8.82;5.57;;;;;;;;;;143754;585;46021;-78
2021/12/13 16:05:16;;;;;;;9.85;7.10;;;;;;;;;;143754;614;45020;-77
2021/12/13 16:07:44;;;;;;;22.17;13.38;;;;;;;;;;143754;603;45020;-77